sensor_id;sensor_type;location;lat;lon;timestamp;temperature;humidity
14140;DHT22;7150;53.514;9.988;2024-01-30T00:01:41;8.40;99.90
14140;DHT22;7150;53.514;9.988;2024-01-30T00:04:06;8.30;99.90
14140;DHT22;7150;53.514;9.988;2024-01-30T00:06:32;8.30;99.90
14140;DHT22;7150;53.514;9.988;2024-01-30T00:08:58;8.30;99.90
14140;DHT22;7150;53.514;9.988;2024-01-30T00:11:23;8.30;99.90
14140;DHT22;7150;53.514;9.988;2024-01-30T00:13:51;8.40;99.90
14140;DHT22;7150;53.514;9.988;2024-01-30T00:16:20;8.40;99.90
14140;DHT22;7150;53.514;9.988;2024-01-30T00:18:47;8.40;99.90
14140;DHT22;7150;53.514;9.988;2024-01-30T00:21:12;8.40;99.90
14140;DHT22;7150;53.514;9.988;2024-01-30T00:23:38;8.40;99.90
14140;DHT22;7150;53.514;9.988;2024-01-30T00:26:03;8.40;99.90
14140;DHT22;7150;53.514;9.988;2024-01-30T00:28:30;8.30;99.90
14140;DHT22;7150;53.514;9.988;2024-01-30T00:30:55;8.30;99.90
14140;DHT22;7150;53.514;9.988;2024-01-30T00:33:21;8.30;99.90
14140;DHT22;7150;53.514;9.988;2024-01-30T00:35:47;8.30;99.90
14140;DHT22;7150;53.514;9.988;2024-01-30T00:38:12;8.30;99.90
14140;DHT22;7150;53.514;9.988;2024-01-30T00:40:38;8.20;99.90
14140;DHT22;7150;53.514;9.988;2024-01-30T00:43:03;8.20;99.90
14140;DHT22;7150;53.514;9.988;2024-01-30T00:45:29;8.10;99.90
14140;DHT22;7150;53.514;9.988;2024-01-30T00:47:54;8.10;99.90
14140;DHT22;7150;53.514;9.988;2024-01-30T00:50:20;8.00;99.90
14140;DHT22;7150;53.514;9.988;2024-01-30T00:52:45;8.00;99.90
14140;DHT22;7150;53.514;9.988;2024-01-30T00:55:11;8.10;99.90
14140;DHT22;7150;53.514;9.988;2024-01-30T00:57:36;8.10;99.90
14140;DHT22;7150;53.514;9.988;2024-01-30T01:00:03;8.10;99.90
14140;DHT22;7150;53.514;9.988;2024-01-30T01:02:28;8.10;99.90
14140;DHT22;7150;53.514;9.988;2024-01-30T01:04:54;8.10;99.90
14140;DHT22;7150;53.514;9.988;2024-01-30T01:07:19;8.10;99.90
14140;DHT22;7150;53.514;9.988;2024-01-30T01:09:45;8.10;99.90
14140;DHT22;7150;53.514;9.988;2024-01-30T01:12:10;8.00;99.90
14140;DHT22;7150;53.514;9.988;2024-01-30T01:14:36;8.00;99.90
14140;DHT22;7150;53.514;9.988;2024-01-30T01:17:01;8.00;99.90
14140;DHT22;7150;53.514;9.988;2024-01-30T01:19:27;8.00;99.90
14140;DHT22;7150;53.514;9.988;2024-01-30T01:21:52;8.00;99.90
14140;DHT22;7150;53.514;9.988;2024-01-30T01:24:18;8.00;99.90
14140;DHT22;7150;53.514;9.988;2024-01-30T01:26:44;8.00;99.90
14140;DHT22;7150;53.514;9.988;2024-01-30T01:29:09;8.00;99.90
14140;DHT22;7150;53.514;9.988;2024-01-30T01:31:37;7.90;99.90
14140;DHT22;7150;53.514;9.988;2024-01-30T01:34:12;7.90;99.90
14140;DHT22;7150;53.514;9.988;2024-01-30T01:36:38;7.90;99.90
14140;DHT22;7150;53.514;9.988;2024-01-30T01:39:04;7.90;99.90
14140;DHT22;7150;53.514;9.988;2024-01-30T01:41:30;7.90;99.90
14140;DHT22;7150;53.514;9.988;2024-01-30T01:43:57;7.90;99.90
14140;DHT22;7150;53.514;9.988;2024-01-30T01:46:23;7.90;99.90
14140;DHT22;7150;53.514;9.988;2024-01-30T01:48:49;7.90;99.90
14140;DHT22;7150;53.514;9.988;2024-01-30T01:51:14;7.90;99.90
14140;DHT22;7150;53.514;9.988;2024-01-30T01:53:41;7.80;99.90
14140;DHT22;7150;53.514;9.988;2024-01-30T01:56:07;7.80;99.90
14140;DHT22;7150;53.514;9.988;2024-01-30T01:58:32;7.70;99.90
14140;DHT22;7150;53.514;9.988;2024-01-30T02:00:58;7.70;99.90
14140;DHT22;7150;53.514;9.988;2024-01-30T02:03:24;7.70;99.90
14140;DHT22;7150;53.514;9.988;2024-01-30T02:05:51;7.70;99.90
14140;DHT22;7150;53.514;9.988;2024-01-30T02:08:16;7.70;99.90
14140;DHT22;7150;53.514;9.988;2024-01-30T02:10:42;7.80;99.90
14140;DHT22;7150;53.514;9.988;2024-01-30T02:13:07;7.70;99.90
14140;DHT22;7150;53.514;9.988;2024-01-30T02:15:33;7.70;99.90
14140;DHT22;7150;53.514;9.988;2024-01-30T02:17:59;7.70;99.90
14140;DHT22;7150;53.514;9.988;2024-01-30T02:20:25;7.70;99.90
14140;DHT22;7150;53.514;9.988;2024-01-30T02:22:55;7.80;99.90
14140;DHT22;7150;53.514;9.988;2024-01-30T02:25:30;7.70;99.90
14140;DHT22;7150;53.514;9.988;2024-01-30T02:27:56;7.70;99.90
14140;DHT22;7150;53.514;9.988;2024-01-30T02:30:21;7.70;99.90
14140;DHT22;7150;53.514;9.988;2024-01-30T02:32:47;7.70;99.90
14140;DHT22;7150;53.514;9.988;2024-01-30T02:35:12;7.70;99.90
14140;DHT22;7150;53.514;9.988;2024-01-30T02:37:38;7.70;99.90
14140;DHT22;7150;53.514;9.988;2024-01-30T02:40:04;7.70;99.90
14140;DHT22;7150;53.514;9.988;2024-01-30T02:42:29;7.70;99.90
14140;DHT22;7150;53.514;9.988;2024-01-30T02:44:55;7.70;99.90
14140;DHT22;7150;53.514;9.988;2024-01-30T02:47:20;7.70;99.90
14140;DHT22;7150;53.514;9.988;2024-01-30T02:49:46;7.70;99.90
14140;DHT22;7150;53.514;9.988;2024-01-30T02:52:11;7.70;99.90
14140;DHT22;7150;53.514;9.988;2024-01-30T02:54:37;7.70;99.90
14140;DHT22;7150;53.514;9.988;2024-01-30T02:57:02;7.70;99.90
14140;DHT22;7150;53.514;9.988;2024-01-30T02:59:28;7.80;99.90
14140;DHT22;7150;53.514;9.988;2024-01-30T03:01:53;7.80;99.90
14140;DHT22;7150;53.514;9.988;2024-01-30T03:04:19;7.80;99.90
14140;DHT22;7150;53.514;9.988;2024-01-30T03:06:45;7.80;99.90
14140;DHT22;7150;53.514;9.988;2024-01-30T03:09:12;7.80;99.90
14140;DHT22;7150;53.514;9.988;2024-01-30T03:11:37;7.80;99.90
14140;DHT22;7150;53.514;9.988;2024-01-30T03:14:03;7.80;99.90
14140;DHT22;7150;53.514;9.988;2024-01-30T03:16:29;7.80;99.90
14140;DHT22;7150;53.514;9.988;2024-01-30T03:18:55;7.80;99.90
14140;DHT22;7150;53.514;9.988;2024-01-30T03:21:20;7.80;99.90
14140;DHT22;7150;53.514;9.988;2024-01-30T03:23:45;7.80;99.90
14140;DHT22;7150;53.514;9.988;2024-01-30T03:26:11;7.80;99.90
14140;DHT22;7150;53.514;9.988;2024-01-30T03:28:37;7.80;99.90
14140;DHT22;7150;53.514;9.988;2024-01-30T03:31:03;7.80;99.90
14140;DHT22;7150;53.514;9.988;2024-01-30T03:33:29;7.80;99.90
14140;DHT22;7150;53.514;9.988;2024-01-30T03:35:54;7.70;99.90
14140;DHT22;7150;53.514;9.988;2024-01-30T03:38:19;7.70;99.90
14140;DHT22;7150;53.514;9.988;2024-01-30T03:40:45;7.70;99.90
14140;DHT22;7150;53.514;9.988;2024-01-30T03:43:11;7.70;99.90
14140;DHT22;7150;53.514;9.988;2024-01-30T03:45:36;7.70;99.90
14140;DHT22;7150;53.514;9.988;2024-01-30T03:48:02;7.70;99.90
14140;DHT22;7150;53.514;9.988;2024-01-30T03:50:27;7.70;99.90
14140;DHT22;7150;53.514;9.988;2024-01-30T03:52:53;7.60;99.90
14140;DHT22;7150;53.514;9.988;2024-01-30T03:55:18;7.50;99.90
14140;DHT22;7150;53.514;9.988;2024-01-30T03:57:44;7.50;99.90
14140;DHT22;7150;53.514;9.988;2024-01-30T04:00:10;7.50;99.90
14140;DHT22;7150;53.514;9.988;2024-01-30T04:02:36;7.50;99.90
14140;DHT22;7150;53.514;9.988;2024-01-30T04:05:01;7.50;99.90
14140;DHT22;7150;53.514;9.988;2024-01-30T04:07:27;7.50;99.90
14140;DHT22;7150;53.514;9.988;2024-01-30T04:09:52;7.50;99.90
14140;DHT22;7150;53.514;9.988;2024-01-30T04:12:18;7.70;99.90
14140;DHT22;7150;53.514;9.988;2024-01-30T04:14:43;7.60;99.90
14140;DHT22;7150;53.514;9.988;2024-01-30T04:17:09;7.50;99.90
14140;DHT22;7150;53.514;9.988;2024-01-30T04:19:37;7.50;99.90
14140;DHT22;7150;53.514;9.988;2024-01-30T04:22:03;7.40;99.90
14140;DHT22;7150;53.514;9.988;2024-01-30T04:24:29;7.40;99.90
14140;DHT22;7150;53.514;9.988;2024-01-30T04:26:54;7.40;99.90
14140;DHT22;7150;53.514;9.988;2024-01-30T04:29:19;7.40;99.90
14140;DHT22;7150;53.514;9.988;2024-01-30T04:31:45;7.30;99.90
14140;DHT22;7150;53.514;9.988;2024-01-30T04:34:10;7.30;99.90
14140;DHT22;7150;53.514;9.988;2024-01-30T04:36:36;7.40;99.90
14140;DHT22;7150;53.514;9.988;2024-01-30T04:39:01;7.40;99.90
14140;DHT22;7150;53.514;9.988;2024-01-30T04:41:27;7.40;99.90
14140;DHT22;7150;53.514;9.988;2024-01-30T04:43:56;7.40;99.90
14140;DHT22;7150;53.514;9.988;2024-01-30T04:46:22;7.40;99.90
14140;DHT22;7150;53.514;9.988;2024-01-30T04:48:47;7.30;99.90
14140;DHT22;7150;53.514;9.988;2024-01-30T04:51:13;7.30;99.90
14140;DHT22;7150;53.514;9.988;2024-01-30T04:53:38;7.30;99.90
14140;DHT22;7150;53.514;9.988;2024-01-30T04:56:05;7.20;99.90
14140;DHT22;7150;53.514;9.988;2024-01-30T04:58:31;7.20;99.90
14140;DHT22;7150;53.514;9.988;2024-01-30T05:00:56;7.20;99.90
14140;DHT22;7150;53.514;9.988;2024-01-30T05:03:22;7.20;99.90
14140;DHT22;7150;53.514;9.988;2024-01-30T05:05:48;7.00;99.90
14140;DHT22;7150;53.514;9.988;2024-01-30T05:08:14;7.20;99.90
14140;DHT22;7150;53.514;9.988;2024-01-30T05:10:40;7.20;99.90
14140;DHT22;7150;53.514;9.988;2024-01-30T05:13:05;7.20;99.90
14140;DHT22;7150;53.514;9.988;2024-01-30T05:15:31;7.20;99.90
14140;DHT22;7150;53.514;9.988;2024-01-30T05:17:56;7.20;99.90
14140;DHT22;7150;53.514;9.988;2024-01-30T05:20:22;7.20;99.90
14140;DHT22;7150;53.514;9.988;2024-01-30T05:22:47;7.20;99.90
14140;DHT22;7150;53.514;9.988;2024-01-30T05:25:13;7.20;99.90
14140;DHT22;7150;53.514;9.988;2024-01-30T05:27:38;7.20;99.90
14140;DHT22;7150;53.514;9.988;2024-01-30T05:30:06;7.20;99.90
14140;DHT22;7150;53.514;9.988;2024-01-30T05:32:31;7.20;99.90
14140;DHT22;7150;53.514;9.988;2024-01-30T05:34:57;7.10;99.90
14140;DHT22;7150;53.514;9.988;2024-01-30T05:37:22;7.20;99.90
14140;DHT22;7150;53.514;9.988;2024-01-30T05:39:48;7.20;99.90
14140;DHT22;7150;53.514;9.988;2024-01-30T05:42:13;7.20;99.90
14140;DHT22;7150;53.514;9.988;2024-01-30T05:44:40;7.20;99.90
14140;DHT22;7150;53.514;9.988;2024-01-30T05:47:05;7.20;99.90
14140;DHT22;7150;53.514;9.988;2024-01-30T05:49:31;7.20;99.90
14140;DHT22;7150;53.514;9.988;2024-01-30T05:51:57;7.20;99.90
14140;DHT22;7150;53.514;9.988;2024-01-30T05:54:22;7.20;99.90
14140;DHT22;7150;53.514;9.988;2024-01-30T05:56:48;7.20;99.90
14140;DHT22;7150;53.514;9.988;2024-01-30T05:59:13;7.20;99.90
14140;DHT22;7150;53.514;9.988;2024-01-30T06:01:45;7.20;99.90
14140;DHT22;7150;53.514;9.988;2024-01-30T06:04:11;7.20;99.90
14140;DHT22;7150;53.514;9.988;2024-01-30T06:06:37;7.20;99.90
14140;DHT22;7150;53.514;9.988;2024-01-30T06:09:02;7.20;99.90
14140;DHT22;7150;53.514;9.988;2024-01-30T06:11:28;7.20;99.90
14140;DHT22;7150;53.514;9.988;2024-01-30T06:13:53;7.20;99.90
14140;DHT22;7150;53.514;9.988;2024-01-30T06:16:19;7.20;99.90
14140;DHT22;7150;53.514;9.988;2024-01-30T06:18:46;7.20;99.90
14140;DHT22;7150;53.514;9.988;2024-01-30T06:21:12;7.20;99.90
14140;DHT22;7150;53.514;9.988;2024-01-30T06:23:38;7.20;99.90
14140;DHT22;7150;53.514;9.988;2024-01-30T06:26:04;7.20;99.90
14140;DHT22;7150;53.514;9.988;2024-01-30T06:28:30;7.20;99.90
14140;DHT22;7150;53.514;9.988;2024-01-30T06:30:55;7.20;99.90
14140;DHT22;7150;53.514;9.988;2024-01-30T06:33:21;7.20;99.90
14140;DHT22;7150;53.514;9.988;2024-01-30T06:35:47;7.20;99.90
14140;DHT22;7150;53.514;9.988;2024-01-30T06:38:12;7.20;99.90
14140;DHT22;7150;53.514;9.988;2024-01-30T06:40:38;7.20;99.90
14140;DHT22;7150;53.514;9.988;2024-01-30T06:43:05;7.20;99.90
14140;DHT22;7150;53.514;9.988;2024-01-30T06:45:30;7.20;99.90
14140;DHT22;7150;53.514;9.988;2024-01-30T06:47:55;7.20;99.90
14140;DHT22;7150;53.514;9.988;2024-01-30T06:50:21;7.20;99.90
14140;DHT22;7150;53.514;9.988;2024-01-30T06:52:46;7.20;99.90
14140;DHT22;7150;53.514;9.988;2024-01-30T06:55:12;7.20;99.90
14140;DHT22;7150;53.514;9.988;2024-01-30T06:57:37;7.20;99.90
14140;DHT22;7150;53.514;9.988;2024-01-30T07:00:03;7.20;99.90
14140;DHT22;7150;53.514;9.988;2024-01-30T07:02:29;7.20;99.90
14140;DHT22;7150;53.514;9.988;2024-01-30T07:04:54;7.20;99.90
14140;DHT22;7150;53.514;9.988;2024-01-30T07:07:20;7.30;99.90
14140;DHT22;7150;53.514;9.988;2024-01-30T07:09:45;7.40;99.90
14140;DHT22;7150;53.514;9.988;2024-01-30T07:12:12;7.30;99.90
14140;DHT22;7150;53.514;9.988;2024-01-30T07:14:38;7.40;99.90
14140;DHT22;7150;53.514;9.988;2024-01-30T07:17:04;7.40;99.90
14140;DHT22;7150;53.514;9.988;2024-01-30T07:19:29;7.40;99.90
14140;DHT22;7150;53.514;9.988;2024-01-30T07:21:54;7.40;99.90
14140;DHT22;7150;53.514;9.988;2024-01-30T07:24:20;7.40;99.90
14140;DHT22;7150;53.514;9.988;2024-01-30T07:26:45;7.50;99.90
14140;DHT22;7150;53.514;9.988;2024-01-30T07:29:11;7.40;99.90
14140;DHT22;7150;53.514;9.988;2024-01-30T07:31:36;7.40;99.90
14140;DHT22;7150;53.514;9.988;2024-01-30T07:34:02;7.50;99.90
14140;DHT22;7150;53.514;9.988;2024-01-30T07:36:28;7.50;99.90
14140;DHT22;7150;53.514;9.988;2024-01-30T07:38:53;7.50;99.90
14140;DHT22;7150;53.514;9.988;2024-01-30T07:41:20;7.50;99.90
14140;DHT22;7150;53.514;9.988;2024-01-30T07:43:45;7.50;99.90
14140;DHT22;7150;53.514;9.988;2024-01-30T07:46:11;7.40;99.90
14140;DHT22;7150;53.514;9.988;2024-01-30T07:48:36;7.40;99.90
14140;DHT22;7150;53.514;9.988;2024-01-30T07:51:02;7.40;99.90
14140;DHT22;7150;53.514;9.988;2024-01-30T07:53:29;7.40;99.90
14140;DHT22;7150;53.514;9.988;2024-01-30T07:55:54;7.40;99.90
14140;DHT22;7150;53.514;9.988;2024-01-30T07:58:20;7.50;99.90
14140;DHT22;7150;53.514;9.988;2024-01-30T08:00:45;7.50;99.90
14140;DHT22;7150;53.514;9.988;2024-01-30T08:03:11;7.50;99.90
14140;DHT22;7150;53.514;9.988;2024-01-30T08:05:37;7.60;99.90
14140;DHT22;7150;53.514;9.988;2024-01-30T08:08:04;7.60;99.90
14140;DHT22;7150;53.514;9.988;2024-01-30T08:10:30;7.60;99.90
14140;DHT22;7150;53.514;9.988;2024-01-30T08:12:55;7.70;99.90
14140;DHT22;7150;53.514;9.988;2024-01-30T08:15:21;7.70;99.90
14140;DHT22;7150;53.514;9.988;2024-01-30T08:17:46;7.80;99.90
14140;DHT22;7150;53.514;9.988;2024-01-30T08:20:12;7.80;99.90
14140;DHT22;7150;53.514;9.988;2024-01-30T08:22:40;7.90;99.90
14140;DHT22;7150;53.514;9.988;2024-01-30T08:25:07;8.00;99.90
14140;DHT22;7150;53.514;9.988;2024-01-30T08:27:34;8.00;99.90
14140;DHT22;7150;53.514;9.988;2024-01-30T08:30:01;8.00;99.90
14140;DHT22;7150;53.514;9.988;2024-01-30T08:32:27;8.00;99.90
14140;DHT22;7150;53.514;9.988;2024-01-30T08:34:52;8.10;99.90
14140;DHT22;7150;53.514;9.988;2024-01-30T08:37:17;8.20;99.90
14140;DHT22;7150;53.514;9.988;2024-01-30T08:39:43;8.20;99.90
14140;DHT22;7150;53.514;9.988;2024-01-30T08:42:09;8.30;99.90
14140;DHT22;7150;53.514;9.988;2024-01-30T08:44:35;8.40;99.90
14140;DHT22;7150;53.514;9.988;2024-01-30T08:47:01;8.40;99.90
14140;DHT22;7150;53.514;9.988;2024-01-30T08:49:26;8.40;99.90
14140;DHT22;7150;53.514;9.988;2024-01-30T08:51:52;8.40;99.90
14140;DHT22;7150;53.514;9.988;2024-01-30T08:54:17;8.50;99.90
14140;DHT22;7150;53.514;9.988;2024-01-30T08:56:43;8.50;99.90
14140;DHT22;7150;53.514;9.988;2024-01-30T08:59:09;8.50;99.90
14140;DHT22;7150;53.514;9.988;2024-01-30T09:01:34;8.50;99.90
14140;DHT22;7150;53.514;9.988;2024-01-30T09:04:00;8.50;99.90
14140;DHT22;7150;53.514;9.988;2024-01-30T09:06:25;8.50;99.90
14140;DHT22;7150;53.514;9.988;2024-01-30T09:08:53;8.50;99.90
14140;DHT22;7150;53.514;9.988;2024-01-30T09:11:19;8.50;99.90
14140;DHT22;7150;53.514;9.988;2024-01-30T09:13:44;8.50;99.90
14140;DHT22;7150;53.514;9.988;2024-01-30T09:16:10;8.50;99.90
14140;DHT22;7150;53.514;9.988;2024-01-30T09:18:35;8.60;99.90
14140;DHT22;7150;53.514;9.988;2024-01-30T09:21:01;8.60;99.90
14140;DHT22;7150;53.514;9.988;2024-01-30T09:23:29;8.60;99.90
14140;DHT22;7150;53.514;9.988;2024-01-30T09:25:55;8.60;99.90
14140;DHT22;7150;53.514;9.988;2024-01-30T09:28:21;8.60;99.90
14140;DHT22;7150;53.514;9.988;2024-01-30T09:30:46;8.60;99.90
14140;DHT22;7150;53.514;9.988;2024-01-30T09:33:12;8.70;99.90
14140;DHT22;7150;53.514;9.988;2024-01-30T09:35:37;8.70;99.90
14140;DHT22;7150;53.514;9.988;2024-01-30T09:38:03;8.70;99.90
14140;DHT22;7150;53.514;9.988;2024-01-30T09:40:29;8.70;99.90
14140;DHT22;7150;53.514;9.988;2024-01-30T09:42:55;8.80;99.90
14140;DHT22;7150;53.514;9.988;2024-01-30T09:45:24;8.80;99.90
14140;DHT22;7150;53.514;9.988;2024-01-30T09:47:50;8.80;99.90
14140;DHT22;7150;53.514;9.988;2024-01-30T09:50:16;8.90;99.90
14140;DHT22;7150;53.514;9.988;2024-01-30T09:52:48;8.90;99.90
14140;DHT22;7150;53.514;9.988;2024-01-30T09:55:15;8.90;99.90
14140;DHT22;7150;53.514;9.988;2024-01-30T09:57:41;8.90;99.90
14140;DHT22;7150;53.514;9.988;2024-01-30T10:00:07;9.00;99.90
14140;DHT22;7150;53.514;9.988;2024-01-30T10:02:34;9.00;99.90
14140;DHT22;7150;53.514;9.988;2024-01-30T10:05:00;9.00;99.90
14140;DHT22;7150;53.514;9.988;2024-01-30T10:07:26;9.10;99.90
14140;DHT22;7150;53.514;9.988;2024-01-30T10:09:52;9.10;99.90
14140;DHT22;7150;53.514;9.988;2024-01-30T10:12:18;9.10;99.90
14140;DHT22;7150;53.514;9.988;2024-01-30T10:14:44;9.20;99.90
14140;DHT22;7150;53.514;9.988;2024-01-30T10:17:10;9.20;99.90
14140;DHT22;7150;53.514;9.988;2024-01-30T10:19:39;9.20;99.90
14140;DHT22;7150;53.514;9.988;2024-01-30T10:22:05;9.30;99.90
14140;DHT22;7150;53.514;9.988;2024-01-30T10:24:31;9.30;99.90
14140;DHT22;7150;53.514;9.988;2024-01-30T10:26:58;9.40;99.90
14140;DHT22;7150;53.514;9.988;2024-01-30T10:29:24;9.40;99.90
14140;DHT22;7150;53.514;9.988;2024-01-30T10:32:04;9.40;99.90
14140;DHT22;7150;53.514;9.988;2024-01-30T10:34:30;9.50;99.90
14140;DHT22;7150;53.514;9.988;2024-01-30T10:37:00;9.50;99.90
14140;DHT22;7150;53.514;9.988;2024-01-30T10:39:35;9.50;99.90
14140;DHT22;7150;53.514;9.988;2024-01-30T10:42:04;9.60;99.90
14140;DHT22;7150;53.514;9.988;2024-01-30T10:44:39;9.60;99.90
14140;DHT22;7150;53.514;9.988;2024-01-30T10:47:11;9.60;99.90
14140;DHT22;7150;53.514;9.988;2024-01-30T10:49:39;9.70;99.90
14140;DHT22;7150;53.514;9.988;2024-01-30T10:52:06;9.70;99.90
14140;DHT22;7150;53.514;9.988;2024-01-30T10:54:35;9.80;99.90
14140;DHT22;7150;53.514;9.988;2024-01-30T10:57:01;9.80;99.90
14140;DHT22;7150;53.514;9.988;2024-01-30T10:59:29;9.80;99.90
14140;DHT22;7150;53.514;9.988;2024-01-30T11:01:57;9.90;99.90
14140;DHT22;7150;53.514;9.988;2024-01-30T11:04:23;9.90;99.90
14140;DHT22;7150;53.514;9.988;2024-01-30T11:06:50;10.00;99.90
14140;DHT22;7150;53.514;9.988;2024-01-30T11:09:17;10.00;99.90
14140;DHT22;7150;53.514;9.988;2024-01-30T11:14:14;10.10;99.90
14140;DHT22;7150;53.514;9.988;2024-01-30T11:16:40;10.10;99.90
14140;DHT22;7150;53.514;9.988;2024-01-30T11:19:10;10.20;99.90
14140;DHT22;7150;53.514;9.988;2024-01-30T11:21:41;10.20;99.90
14140;DHT22;7150;53.514;9.988;2024-01-30T11:24:07;10.20;99.90
14140;DHT22;7150;53.514;9.988;2024-01-30T11:26:33;10.20;99.90
14140;DHT22;7150;53.514;9.988;2024-01-30T11:29:03;10.30;99.90
14140;DHT22;7150;53.514;9.988;2024-01-30T11:31:28;10.30;99.90
14140;DHT22;7150;53.514;9.988;2024-01-30T11:33:55;10.30;99.90
14140;DHT22;7150;53.514;9.988;2024-01-30T11:36:25;10.40;99.90
14140;DHT22;7150;53.514;9.988;2024-01-30T11:38:51;10.40;99.90
14140;DHT22;7150;53.514;9.988;2024-01-30T11:41:17;10.40;99.90
14140;DHT22;7150;53.514;9.988;2024-01-30T11:43:50;10.40;99.90
14140;DHT22;7150;53.514;9.988;2024-01-30T11:46:16;10.50;99.90
14140;DHT22;7150;53.514;9.988;2024-01-30T11:48:41;10.50;99.90
14140;DHT22;7150;53.514;9.988;2024-01-30T11:51:07;10.50;99.90
14140;DHT22;7150;53.514;9.988;2024-01-30T11:53:32;10.50;99.90
14140;DHT22;7150;53.514;9.988;2024-01-30T11:55:58;10.60;99.90
14140;DHT22;7150;53.514;9.988;2024-01-30T11:58:25;10.60;99.90
14140;DHT22;7150;53.514;9.988;2024-01-30T12:00:57;10.60;99.90
14140;DHT22;7150;53.514;9.988;2024-01-30T12:03:23;10.60;99.90
14140;DHT22;7150;53.514;9.988;2024-01-30T12:05:56;10.60;99.90
14140;DHT22;7150;53.514;9.988;2024-01-30T12:08:22;10.70;99.90
14140;DHT22;7150;53.514;9.988;2024-01-30T12:10:55;10.60;99.90
14140;DHT22;7150;53.514;9.988;2024-01-30T12:13:22;10.70;99.90
14140;DHT22;7150;53.514;9.988;2024-01-30T12:15:47;10.70;99.90
14140;DHT22;7150;53.514;9.988;2024-01-30T12:18:12;10.80;99.90
14140;DHT22;7150;53.514;9.988;2024-01-30T12:20:38;10.80;99.90
14140;DHT22;7150;53.514;9.988;2024-01-30T12:23:03;10.80;99.90
14140;DHT22;7150;53.514;9.988;2024-01-30T12:25:29;10.90;99.90
14140;DHT22;7150;53.514;9.988;2024-01-30T12:27:55;10.90;99.90
14140;DHT22;7150;53.514;9.988;2024-01-30T12:30:20;11.00;99.90
14140;DHT22;7150;53.514;9.988;2024-01-30T12:32:47;11.00;99.90
14140;DHT22;7150;53.514;9.988;2024-01-30T12:35:16;11.10;99.90
14140;DHT22;7150;53.514;9.988;2024-01-30T12:37:43;11.10;99.90
14140;DHT22;7150;53.514;9.988;2024-01-30T12:40:10;11.20;99.90
14140;DHT22;7150;53.514;9.988;2024-01-30T12:42:37;11.20;99.90
14140;DHT22;7150;53.514;9.988;2024-01-30T12:45:03;11.30;99.90
14140;DHT22;7150;53.514;9.988;2024-01-30T12:47:29;11.30;99.90
14140;DHT22;7150;53.514;9.988;2024-01-30T12:49:55;11.40;99.90
14140;DHT22;7150;53.514;9.988;2024-01-30T12:52:21;11.40;99.90
14140;DHT22;7150;53.514;9.988;2024-01-30T12:54:48;11.50;99.90
14140;DHT22;7150;53.514;9.988;2024-01-30T12:57:13;11.50;99.90
14140;DHT22;7150;53.514;9.988;2024-01-30T12:59:39;11.50;99.90
14140;DHT22;7150;53.514;9.988;2024-01-30T13:02:05;11.50;99.90
14140;DHT22;7150;53.514;9.988;2024-01-30T13:04:30;11.50;99.90
14140;DHT22;7150;53.514;9.988;2024-01-30T13:06:56;11.60;99.90
14140;DHT22;7150;53.514;9.988;2024-01-30T13:09:23;11.60;99.90
14140;DHT22;7150;53.514;9.988;2024-01-30T13:11:49;11.60;99.90
14140;DHT22;7150;53.514;9.988;2024-01-30T13:14:14;11.60;99.90
14140;DHT22;7150;53.514;9.988;2024-01-30T13:16:40;11.60;99.90
14140;DHT22;7150;53.514;9.988;2024-01-30T13:19:05;11.60;99.90
14140;DHT22;7150;53.514;9.988;2024-01-30T13:21:31;11.60;99.90
14140;DHT22;7150;53.514;9.988;2024-01-30T13:23:56;11.60;99.90
14140;DHT22;7150;53.514;9.988;2024-01-30T13:26:22;11.70;99.90
14140;DHT22;7150;53.514;9.988;2024-01-30T13:28:47;11.70;99.90
14140;DHT22;7150;53.514;9.988;2024-01-30T13:31:14;11.70;99.90
14140;DHT22;7150;53.514;9.988;2024-01-30T13:33:40;11.70;99.90
14140;DHT22;7150;53.514;9.988;2024-01-30T13:36:07;11.70;99.90
14140;DHT22;7150;53.514;9.988;2024-01-30T13:38:32;11.70;99.90
14140;DHT22;7150;53.514;9.988;2024-01-30T13:40:59;11.70;99.90
14140;DHT22;7150;53.514;9.988;2024-01-30T13:43:24;11.70;99.90
14140;DHT22;7150;53.514;9.988;2024-01-30T13:45:50;11.70;99.90
14140;DHT22;7150;53.514;9.988;2024-01-30T13:48:15;11.70;99.90
14140;DHT22;7150;53.514;9.988;2024-01-30T13:50:40;11.80;99.90
14140;DHT22;7150;53.514;9.988;2024-01-30T13:53:06;11.80;99.90
14140;DHT22;7150;53.514;9.988;2024-01-30T13:55:32;11.80;99.90
14140;DHT22;7150;53.514;9.988;2024-01-30T13:57:57;11.80;99.90
14140;DHT22;7150;53.514;9.988;2024-01-30T14:00:23;11.80;99.90
14140;DHT22;7150;53.514;9.988;2024-01-30T14:02:50;11.80;99.90
14140;DHT22;7150;53.514;9.988;2024-01-30T14:05:16;11.80;99.90
14140;DHT22;7150;53.514;9.988;2024-01-30T14:07:43;11.80;99.90
14140;DHT22;7150;53.514;9.988;2024-01-30T14:10:09;11.80;99.90
14140;DHT22;7150;53.514;9.988;2024-01-30T14:12:36;11.90;99.90
14140;DHT22;7150;53.514;9.988;2024-01-30T14:15:02;11.90;99.90
14140;DHT22;7150;53.514;9.988;2024-01-30T14:17:27;11.90;99.90
14140;DHT22;7150;53.514;9.988;2024-01-30T14:19:53;11.90;99.90
14140;DHT22;7150;53.514;9.988;2024-01-30T14:22:18;11.90;99.90
14140;DHT22;7150;53.514;9.988;2024-01-30T14:24:44;11.90;99.90
14140;DHT22;7150;53.514;9.988;2024-01-30T14:27:10;11.90;99.90
14140;DHT22;7150;53.514;9.988;2024-01-30T14:29:35;12.00;99.90
14140;DHT22;7150;53.514;9.988;2024-01-30T14:32:01;12.00;99.90
14140;DHT22;7150;53.514;9.988;2024-01-30T14:34:27;12.00;99.90
14140;DHT22;7150;53.514;9.988;2024-01-30T14:36:52;12.00;99.90
14140;DHT22;7150;53.514;9.988;2024-01-30T14:39:18;12.00;99.90
14140;DHT22;7150;53.514;9.988;2024-01-30T14:41:44;12.00;99.90
14140;DHT22;7150;53.514;9.988;2024-01-30T14:44:09;12.00;99.90
14140;DHT22;7150;53.514;9.988;2024-01-30T14:46:36;12.00;99.90
14140;DHT22;7150;53.514;9.988;2024-01-30T14:49:03;12.10;99.90
14140;DHT22;7150;53.514;9.988;2024-01-30T14:51:31;12.10;99.90
14140;DHT22;7150;53.514;9.988;2024-01-30T14:53:56;12.10;99.90
14140;DHT22;7150;53.514;9.988;2024-01-30T14:56:22;12.10;99.90
14140;DHT22;7150;53.514;9.988;2024-01-30T14:58:48;12.10;99.90
14140;DHT22;7150;53.514;9.988;2024-01-30T15:01:13;12.10;99.90
14140;DHT22;7150;53.514;9.988;2024-01-30T15:03:39;12.10;99.90
14140;DHT22;7150;53.514;9.988;2024-01-30T15:06:06;12.10;99.90
14140;DHT22;7150;53.514;9.988;2024-01-30T15:08:31;12.10;99.90
14140;DHT22;7150;53.514;9.988;2024-01-30T15:10:58;12.10;99.90
14140;DHT22;7150;53.514;9.988;2024-01-30T15:13:23;12.10;99.90
14140;DHT22;7150;53.514;9.988;2024-01-30T15:15:49;12.10;99.90
14140;DHT22;7150;53.514;9.988;2024-01-30T15:18:14;12.10;99.90
14140;DHT22;7150;53.514;9.988;2024-01-30T15:20:40;12.10;99.90
14140;DHT22;7150;53.514;9.988;2024-01-30T15:23:05;12.20;99.90
14140;DHT22;7150;53.514;9.988;2024-01-30T15:25:31;12.20;99.90
14140;DHT22;7150;53.514;9.988;2024-01-30T15:27:56;12.20;99.90
14140;DHT22;7150;53.514;9.988;2024-01-30T15:30:22;12.20;99.90
14140;DHT22;7150;53.514;9.988;2024-01-30T15:32:48;12.20;99.90
14140;DHT22;7150;53.514;9.988;2024-01-30T15:35:14;12.20;99.90
14140;DHT22;7150;53.514;9.988;2024-01-30T15:37:39;12.20;99.90
14140;DHT22;7150;53.514;9.988;2024-01-30T15:40:05;12.20;99.90
14140;DHT22;7150;53.514;9.988;2024-01-30T15:42:32;12.20;99.90
14140;DHT22;7150;53.514;9.988;2024-01-30T15:44:57;12.20;99.90
14140;DHT22;7150;53.514;9.988;2024-01-30T15:47:24;12.20;99.90
14140;DHT22;7150;53.514;9.988;2024-01-30T15:49:49;12.20;99.90
14140;DHT22;7150;53.514;9.988;2024-01-30T15:52:15;12.20;99.90